Beeler, KS (67518)

8:20 AM CDT on July 29, 2016 (GMT -0500)
Walnut Fork Ranch | | Change Station

Elev 2464 ft 38.55 °N, 100.15 °W | Updated 13 seconds ago

Clear
Clear
65.1 °F
Feels Like 65.1 °F
N
7.2
Wind Variable Wind from NNE
Gusts 9.8 mph

Today
High -- | Low -- °F
--% Chance of Precip.
Yesterday
High -- | Low -- °F
Precip. -- in
Pressure 29.99 in
Visibility 10.0 miles
Clouds Clear
Dew Point 64 °F
Humidity 97%
Rainfall 0.40 in
Snow Depth Not available.
6:40 AM 8:53 PM
Waning Crescent, 22% visible
METAR KGCK 291254Z 13004KT 10SM CLR 18/17 A3008 RMK AO2 SLP154 T01830167
Pressure 29.99 in
Visibility 10.0 miles
Clouds Clear
Dew Point 64 °F
Humidity 97%
Rainfall 0.40 in
Snow Depth Not available.
6:40 AM 8:53 PM
Waning Crescent, 22% visible
METAR KGCK 291254Z 13004KT 10SM CLR 18/17 A3008 RMK AO2 SLP154 T01830167

10-Day Weather Forecast

Almanac

Astronomy

Jul. 29, 2016 Rise Set
Actual Time
Civil Twilight
Nautical Twilight
Astronomical Twilight
Moon
Length of Visible Light
Length of Day
Tomorrow will be .
, % of the Moon is Illuminated

Today's Extremes

State Highs State Lows

Community

WunderPhotos

Upload Photos

1,928,339 photos uploaded!

WunderBlog® & News

Nearby

Air Quality

  Air Quality AQ Index Pollutant
Not available.

Snow Depth

Station Depth Elevation

Earthquake Activity

City Distance Mag. Time & Date
Minimum magnitude displayed is 2.5.

Coastal Water Temperatures

Place Temperature

Stations

Nearby Weather Stations

Station Location Temp. Windchill Dew Point Humidity Wind Precip. Elev Updated Type
                   

Watches & Warnings

There are currently no watches in effect.